Time;durP1;ratioP1;P1;durP2;ratioP2;P2;SDS_P1;SDS_P2;PMS_P1;PMS_P2;Temp;Humidity;BMP_temperature;BMP_pressure;BME280_temperature;BME280_humidity;BME280_pressure;Samples;Min_cycle;Max_cycle;Signal;HPM_P1;HPM_P2
2021/06/25 00:01:14;;;;;;;3.13;2.93;;;19.30;99.90;;;;;;6155228;23;20502;-86
2021/06/25 00:03:41;;;;;;;3.40;3.20;;;19.30;99.90;;;;;;6134007;23;20403;-87
2021/06/25 00:06:08;;;;;;;3.80;3.50;;;19.20;99.90;;;;;;6127699;23;20431;-87
2021/06/25 00:08:34;;;;;;;3.90;2.90;;;19.20;99.90;;;;;;6128148;23;20413;-86
2021/06/25 00:11:01;;;;;;;3.97;3.67;;;19.10;99.90;;;;;;6129166;23;20456;-87
2021/06/25 00:13:28;;;;;;;3.50;3.27;;;19.10;99.90;;;;;;6128563;23;20925;-87
2021/06/25 00:15:56;;;;;;;3.80;3.50;;;19.10;99.90;;;;;;6131039;23;20406;-87
2021/06/25 00:18:23;;;;;;;3.07;2.87;;;19.10;99.90;;;;;;6141278;23;20885;-87
2021/06/25 00:20:50;;;;;;;3.73;3.00;;;19.00;99.90;;;;;;6127607;23;20432;-88
2021/06/25 00:23:17;;;;;;;3.03;2.83;;;19.00;99.90;;;;;;6128405;23;20889;-87
2021/06/25 00:25:43;;;;;;;3.50;3.20;;;18.90;99.90;;;;;;6129323;23;20895;-87
2021/06/25 00:28:10;;;;;;;2.90;2.70;;;18.90;99.90;;;;;;6126737;23;20411;-88
2021/06/25 00:30:37;;;;;;;3.53;3.23;;;18.70;99.90;;;;;;6127702;23;20443;-88
2021/06/25 00:33:05;;;;;;;2.70;2.50;;;18.60;99.90;;;;;;6128528;23;20781;-87
2021/06/25 00:35:32;;;;;;;3.20;2.90;;;18.60;99.90;;;;;;6132817;23;20392;-87
2021/06/25 00:37:58;;;;;;;2.90;2.70;;;18.50;99.90;;;;;;6155844;23;20407;-87
2021/06/25 00:40:25;;;;;;;3.90;3.57;;;18.50;99.90;;;;;;6149833;23;20398;-86
2021/06/25 00:42:52;;;;;;;2.90;2.70;;;18.60;99.90;;;;;;6142666;23;20431;-87
2021/06/25 00:45:20;;;;;;;2.80;2.60;;;18.60;99.90;;;;;;6129668;23;20395;-88
2021/06/25 00:47:48;;;;;;;3.90;3.10;;;18.50;99.90;;;;;;6129691;23;20890;-88
2021/06/25 00:50:20;;;;;;;3.27;3.00;;;18.50;99.90;;;;;;6128875;23;20410;-87
2021/06/25 00:52:50;;;;;;;3.80;2.83;;;18.50;99.90;;;;;;6138085;23;20445;-85
2021/06/25 00:55:17;;;;;;;3.20;2.53;;;18.50;99.90;;;;;;6133162;23;20400;-86
2021/06/25 00:57:43;;;;;;;3.10;2.90;;;18.50;99.90;;;;;;6127508;23;20411;-88
2021/06/25 01:00:11;;;;;;;4.23;2.57;;;18.50;99.90;;;;;;6127189;23;20433;-88
2021/06/25 01:02:38;;;;;;;2.30;2.17;;;18.50;99.90;;;;;;6125894;23;20429;-88
2021/06/25 01:05:06;;;;;;;2.47;2.27;;;18.50;99.90;;;;;;6125270;23;20418;-88
2021/06/25 01:07:35;;;;;;;2.70;2.30;;;18.50;99.90;;;;;;6127432;23;20408;-89
2021/06/25 01:10:03;;;;;;;2.60;2.23;;;18.50;99.90;;;;;;6126549;23;20933;-88
2021/06/25 01:12:30;;;;;;;2.80;2.03;;;18.50;99.90;;;;;;6127371;23;20450;-88
2021/06/25 01:14:57;;;;;;;3.20;1.73;;;18.50;99.90;;;;;;6125803;23;20903;-88
2021/06/25 01:17:32;;;;;;;2.70;2.00;;;18.50;99.90;;;;;;6127276;23;20385;-89
2021/06/25 01:19:59;;;;;;;3.03;2.30;;;18.50;99.90;;;;;;6127245;23;20415;-88
2021/06/25 01:22:34;;;;;;;3.33;2.27;;;18.50;99.90;;;;;;6127900;23;20440;-88
2021/06/25 01:25:10;;;;;;;1.97;1.77;;;18.50;99.90;;;;;;6152048;23;20415;-86
2021/06/25 01:27:39;;;;;;;2.27;2.17;;;18.40;99.90;;;;;;6134127;23;20871;-88
2021/06/25 01:30:08;;;;;;;2.30;2.10;;;18.40;99.90;;;;;;6126470;23;20896;-88
2021/06/25 01:32:36;;;;;;;1.90;1.80;;;18.40;99.90;;;;;;6128569;23;20794;-89
2021/06/25 01:35:04;;;;;;;2.17;1.70;;;18.40;99.90;;;;;;6126433;23;20422;-89
2021/06/25 01:37:32;;;;;;;1.80;1.70;;;18.40;99.90;;;;;;6126341;23;20908;-87
2021/06/25 01:39:59;;;;;;;2.50;2.20;;;18.40;99.90;;;;;;6129522;23;20411;-85
2021/06/25 01:42:26;;;;;;;3.93;1.90;;;18.30;99.90;;;;;;6153302;23;20487;-85
2021/06/25 01:44:54;;;;;;;3.50;1.80;;;18.30;99.90;;;;;;6147362;23;20887;-87
2021/06/25 01:47:21;;;;;;;1.97;1.87;;;18.30;99.90;;;;;;6126646;23;20411;-90
2021/06/25 01:49:48;;;;;;;1.73;1.63;;;18.30;99.90;;;;;;6126483;23;20405;-88
2021/06/25 01:52:18;;;;;;;1.67;1.50;;;18.30;99.90;;;;;;6126896;23;20451;-87
2021/06/25 01:54:46;;;;;;;1.70;1.60;;;18.30;99.90;;;;;;6126721;23;20393;-88
2021/06/25 01:57:14;;;;;;;2.80;1.87;;;18.40;99.90;;;;;;6126233;23;20399;-86
2021/06/25 01:59:41;;;;;;;1.70;1.60;;;18.40;99.90;;;;;;6124921;23;20755;-90
2021/06/25 02:02:08;;;;;;;1.93;1.73;;;18.40;99.90;;;;;;6126917;23;20432;-88
2021/06/25 02:04:35;;;;;;;2.43;2.23;;;18.40;99.90;;;;;;6134614;23;20467;-87
2021/06/25 02:07:02;;;;;;;1.93;1.50;;;18.40;99.90;;;;;;6148058;23;20401;-88
2021/06/25 02:09:29;;;;;;;1.90;1.80;;;18.40;99.90;;;;;;6127941;23;20409;-87
2021/06/25 02:11:57;;;;;;;1.30;1.20;;;18.40;99.90;;;;;;6127393;23;20471;-87
2021/06/25 02:14:24;;;;;;;1.70;1.60;;;18.40;99.90;;;;;;6148659;23;20396;-86
2021/06/25 02:16:51;;;;;;;1.60;1.50;;;18.40;99.90;;;;;;6153169;23;20401;-86
2021/06/25 02:19:17;;;;;;;2.33;1.73;;;18.40;99.90;;;;;;6135364;23;20404;-87
2021/06/25 02:21:44;;;;;;;2.10;1.53;;;18.30;99.90;;;;;;6150586;23;20432;-86
2021/06/25 02:24:11;;;;;;;2.67;1.73;;;18.30;99.90;;;;;;6141251;23;20821;-88
2021/06/25 02:26:37;;;;;;;3.80;1.80;;;18.40;99.90;;;;;;6128260;23;20403;-87
2021/06/25 02:29:06;;;;;;;2.70;1.70;;;18.40;99.90;;;;;;6144832;23;20408;-87
2021/06/25 02:31:32;;;;;;;2.53;1.70;;;18.40;99.90;;;;;;6152262;23;20508;-87
2021/06/25 02:33:59;;;;;;;2.60;1.83;;;18.30;99.90;;;;;;6151685;23;20488;-86
2021/06/25 02:36:26;;;;;;;1.40;1.20;;;18.40;99.90;;;;;;6135845;23;20425;-88
2021/06/25 02:38:52;;;;;;;1.40;1.30;;;18.40;99.90;;;;;;6127526;23;20419;-87
2021/06/25 02:41:20;;;;;;;2.20;1.43;;;18.40;99.90;;;;;;6126207;23;20942;-88
2021/06/25 02:43:47;;;;;;;1.40;1.30;;;18.30;99.90;;;;;;6126260;23;20415;-87
2021/06/25 02:46:15;;;;;;;2.50;1.67;;;18.30;99.90;;;;;;6126194;23;20419;-88
2021/06/25 02:48:42;;;;;;;2.53;1.50;;;18.20;99.90;;;;;;6127251;23;20417;-88
2021/06/25 02:51:08;;;;;;;1.57;1.47;;;18.20;99.90;;;;;;6126732;23;20458;-87
2021/06/25 02:53:35;;;;;;;2.93;1.37;;;18.20;99.90;;;;;;6152042;23;20399;-87
2021/06/25 02:56:02;;;;;;;1.70;1.60;;;18.10;99.90;;;;;;6137089;23;20408;-87
2021/06/25 02:58:28;;;;;;;1.40;1.30;;;18.10;99.90;;;;;;6127491;23;20409;-87
2021/06/25 03:00:56;;;;;;;1.60;1.50;;;18.10;99.90;;;;;;6126517;23;20415;-87
2021/06/25 03:03:24;;;;;;;2.83;1.70;;;18.10;99.90;;;;;;6126516;23;20426;-87
2021/06/25 03:05:53;;;;;;;2.23;1.50;;;18.10;99.90;;;;;;6130455;23;20729;-87
2021/06/25 03:08:20;;;;;;;6.90;1.73;;;18.10;99.90;;;;;;6139708;23;20481;-87
2021/06/25 03:10:49;;;;;;;1.63;1.37;;;18.00;99.90;;;;;;6132285;23;20392;-87
2021/06/25 03:13:16;;;;;;;2.70;1.47;;;18.10;99.90;;;;;;6126665;23;20782;-88
2021/06/25 03:15:43;;;;;;;5.30;1.73;;;18.10;99.90;;;;;;6126318;23;20757;-87
2021/06/25 03:18:10;;;;;;;1.77;1.50;;;18.20;99.90;;;;;;6126710;23;20408;-89
2021/06/25 03:20:38;;;;;;;2.23;1.40;;;18.20;99.90;;;;;;6126695;23;20408;-88
2021/06/25 03:23:05;;;;;;;2.27;1.90;;;18.20;99.90;;;;;;6126575;23;20420;-88
2021/06/25 03:25:32;;;;;;;1.53;1.43;;;18.10;99.90;;;;;;6125173;23;20409;-87
2021/06/25 03:27:59;;;;;;;1.67;1.57;;;18.10;99.90;;;;;;6139372;23;20734;-86
2021/06/25 03:30:26;;;;;;;2.93;1.70;;;18.10;99.90;;;;;;6152527;23;20403;-86
2021/06/25 03:32:53;;;;;;;2.10;1.73;;;18.10;99.90;;;;;;6140375;23;20462;-87
2021/06/25 03:35:19;;;;;;;1.97;1.30;;;18.20;99.90;;;;;;6142529;23;20400;-86
2021/06/25 03:37:48;;;;;;;2.57;1.60;;;18.20;99.90;;;;;;6152779;23;20406;-87
2021/06/25 03:40:16;;;;;;;2.07;1.87;;;18.20;99.90;;;;;;6128052;23;20938;-89
2021/06/25 03:42:44;;;;;;;2.00;1.90;;;18.20;99.90;;;;;;6126202;23;20734;-88
2021/06/25 03:45:12;;;;;;;1.77;1.53;;;18.10;99.90;;;;;;6137458;23;20418;-89
2021/06/25 03:47:40;;;;;;;1.80;1.70;;;18.20;99.90;;;;;;6131899;23;20894;-90
2021/06/25 03:50:08;;;;;;;2.53;1.73;;;18.20;99.90;;;;;;6131213;23;20384;-91
2021/06/25 03:52:38;;;;;;;2.20;1.80;;;18.20;99.90;;;;;;6128771;23;20455;-88
2021/06/25 03:55:09;;;;;;;2.23;2.03;;;18.20;99.90;;;;;;6127900;23;20450;-88
2021/06/25 03:57:36;;;;;;;1.93;1.83;;;18.20;99.90;;;;;;6142496;23;20414;-89
2021/06/25 04:00:04;;;;;;;1.57;1.47;;;18.10;99.90;;;;;;6127671;23;20467;-88
2021/06/25 04:02:40;;;;;;;2.57;2.37;;;18.10;99.90;;;;;;6135038;23;20423;-88
2021/06/25 04:05:09;;;;;;;1.87;1.63;;;18.00;99.90;;;;;;6137843;23;20395;-88
2021/06/25 04:07:36;;;;;;;1.90;1.80;;;18.00;99.90;;;;;;6136360;23;20423;-88
2021/06/25 04:10:06;;;;;;;2.00;1.80;;;18.00;99.90;;;;;;6129183;23;20751;-88
2021/06/25 04:12:34;;;;;;;2.10;1.80;;;18.00;99.90;;;;;;6129420;23;20993;-87
2021/06/25 04:15:04;;;;;;;1.97;1.87;;;18.00;99.90;;;;;;6140868;23;20404;-88
2021/06/25 04:18:38;;;;;;;1.60;1.50;;;18.00;99.90;;;;;;6148201;23;20392;-89
2021/06/25 04:21:05;;;;;;;2.23;2.03;;;18.00;99.90;;;;;;6017116;23;20399;-89
2021/06/25 04:23:32;;;;;;;2.20;2.00;;;18.00;99.90;;;;;;6065639;23;20395;-89
2021/06/25 04:26:00;;;;;;;2.33;2.13;;;18.00;99.90;;;;;;6125921;23;20411;-89
2021/06/25 04:28:27;;;;;;;2.50;2.10;;;18.00;99.90;;;;;;6154797;23;20541;-88
2021/06/25 04:30:54;;;;;;;2.10;2.00;;;17.80;99.90;;;;;;6155367;23;20384;-89
2021/06/25 04:33:20;;;;;;;1.97;1.83;;;17.80;99.90;;;;;;6154316;23;20442;-90
2021/06/25 04:35:49;;;;;;;2.60;2.40;;;17.80;99.90;;;;;;6136804;23;20421;-88
2021/06/25 04:38:16;;;;;;;2.07;1.90;;;17.80;99.90;;;;;;6134472;23;20471;-87
2021/06/25 04:41:20;;;;;;;2.00;1.90;;;17.80;99.90;;;;;;6134191;23;20487;-88
2021/06/25 04:43:46;;;;;;;2.23;2.03;;;17.70;99.90;;;;;;6132741;23;20741;-87
2021/06/25 04:46:19;;;;;;;2.00;1.80;;;17.70;99.90;;;;;;6132647;23;20407;-87
2021/06/25 04:48:48;;;;;;;1.73;1.63;;;17.70;99.90;;;;;;6134764;23;20414;-88
2021/06/25 04:51:15;;;;;;;2.03;1.93;;;17.70;99.90;;;;;;6133523;23;20883;-87
2021/06/25 04:53:43;;;;;;;2.40;2.20;;;17.70;99.90;;;;;;6134106;23;20411;-88
2021/06/25 04:56:11;;;;;;;3.00;2.30;;;17.80;99.90;;;;;;6131418;23;20424;-88
2021/06/25 04:58:38;;;;;;;2.40;2.20;;;17.70;99.90;;;;;;6132080;23;20393;-88
2021/06/25 05:01:05;;;;;;;3.07;2.67;;;17.70;99.90;;;;;;6130545;23;20410;-88
2021/06/25 05:03:33;;;;;;;2.10;2.00;;;17.70;99.90;;;;;;6128304;23;20405;-89
2021/06/25 05:06:00;;;;;;;3.23;2.10;;;17.60;99.90;;;;;;6129018;23;20779;-89
2021/06/25 05:08:32;;;;;;;2.77;1.97;;;17.60;99.90;;;;;;6128852;23;20419;-89
2021/06/25 05:11:17;;;;;;;2.70;2.50;;;17.60;99.90;;;;;;6128104;23;20439;-88
2021/06/25 05:13:53;;;;;;;2.23;2.00;;;17.60;99.90;;;;;;6133957;23;20446;-89
2021/06/25 05:16:20;;;;;;;2.23;1.90;;;17.60;99.90;;;;;;6128427;23;20457;-89
2021/06/25 05:18:47;;;;;;;2.30;2.10;;;17.60;99.90;;;;;;6130528;23;20408;-89
2021/06/25 05:21:14;;;;;;;5.57;1.87;;;17.70;99.90;;;;;;6140761;23;20913;-88
2021/06/25 05:23:41;;;;;;;2.23;2.03;;;17.70;99.90;;;;;;6128062;23;20421;-89
2021/06/25 05:26:08;;;;;;;2.33;2.13;;;17.80;99.90;;;;;;6129205;23;20494;-89
2021/06/25 05:28:34;;;;;;;2.13;1.90;;;17.80;99.90;;;;;;6135022;23;20888;-89
2021/06/25 05:31:03;;;;;;;4.83;2.30;;;18.00;99.90;;;;;;6131212;23;20423;-89
2021/06/25 05:33:29;;;;;;;3.00;2.50;;;18.10;99.90;;;;;;6128723;23;20442;-88
2021/06/25 05:35:56;;;;;;;3.30;2.50;;;18.30;99.90;;;;;;6129256;23;20398;-87
2021/06/25 05:38:23;;;;;;;2.37;2.13;;;18.50;99.90;;;;;;6129963;23;20726;-89
2021/06/25 05:40:50;;;;;;;1.90;1.50;;;18.60;99.90;;;;;;6131232;23;20418;-88
2021/06/25 05:43:17;;;;;;;1.83;1.73;;;18.60;99.90;;;;;;6133341;23;20435;-88
2021/06/25 05:45:44;;;;;;;6.67;2.27;;;18.40;99.90;;;;;;6131823;23;20420;-87
2021/06/25 05:48:12;;;;;;;3.50;1.90;;;18.20;99.90;;;;;;6130426;23;20692;-87
2021/06/25 05:50:39;;;;;;;3.00;2.33;;;18.00;99.90;;;;;;6132487;23;20897;-85
2021/06/25 05:53:06;;;;;;;5.00;2.50;;;18.00;99.90;;;;;;6149455;23;20447;-88
2021/06/25 05:55:34;;;;;;;4.33;3.30;;;18.00;99.90;;;;;;6147662;23;20424;-88
2021/06/25 05:58:02;;;;;;;6.73;2.27;;;18.20;99.90;;;;;;6135337;23;20435;-88
2021/06/25 06:00:29;;;;;;;5.67;3.00;;;18.20;99.90;;;;;;6132305;23;20415;-88
2021/06/25 06:02:56;;;;;;;6.47;2.90;;;18.20;99.90;;;;;;6129824;23;20428;-86
2021/06/25 06:05:24;;;;;;;3.10;2.20;;;18.20;99.90;;;;;;6135014;23;20398;-85
2021/06/25 06:07:51;;;;;;;4.60;2.27;;;18.20;99.90;;;;;;6152919;23;20478;-85
2021/06/25 06:10:18;;;;;;;4.00;2.27;;;18.10;99.90;;;;;;6140886;23;20437;-85
2021/06/25 06:12:45;;;;;;;4.10;2.37;;;18.00;99.90;;;;;;6141323;23;20448;-87
2021/06/25 06:15:13;;;;;;;4.07;3.10;;;18.10;99.90;;;;;;6130721;23;20450;-87
2021/06/25 06:17:43;;;;;;;4.60;3.57;;;17.90;99.90;;;;;;6132483;23;20415;-88
2021/06/25 06:20:15;;;;;;;9.20;7.83;;;17.80;99.90;;;;;;6131614;23;20490;-87
2021/06/25 06:31:21;;;;;;;3.93;2.20;;;18.10;99.90;;;;;;6134631;23;20425;-87
2021/06/25 06:33:53;;;;;;;2.77;2.57;;;18.30;99.90;;;;;;6152976;23;20435;-85
2021/06/25 06:36:25;;;;;;;3.80;2.93;;;18.40;99.90;;;;;;6152823;23;20400;-85
2021/06/25 06:38:54;;;;;;;3.77;2.63;;;18.40;99.90;;;;;;6136758;23;20381;-88
2021/06/25 06:41:21;;;;;;;3.10;2.80;;;18.50;99.90;;;;;;6134932;23;20974;-87
2021/06/25 06:43:48;;;;;;;4.17;2.77;;;18.50;99.90;;;;;;6127898;23;20414;-87
2021/06/25 06:46:15;;;;;;;3.77;3.07;;;18.50;99.90;;;;;;6130754;23;20438;-82
2021/06/25 06:48:44;;;;;;;3.30;3.10;;;18.50;99.90;;;;;;6133639;23;20411;-81
2021/06/25 06:51:11;;;;;;;3.23;2.63;;;18.60;99.90;;;;;;6137680;23;20440;-83
2021/06/25 06:53:42;;;;;;;3.93;2.77;;;18.50;99.90;;;;;;6133069;23;20452;-82
2021/06/25 06:56:11;;;;;;;3.10;2.80;;;18.50;99.90;;;;;;6133437;23;20417;-82
2021/06/25 06:58:38;;;;;;;4.10;3.00;;;18.50;99.90;;;;;;6133839;23;20402;-83
2021/06/25 07:01:05;;;;;;;4.00;2.93;;;18.50;99.90;;;;;;6132737;23;20414;-83
2021/06/25 07:03:32;;;;;;;4.70;4.20;;;18.50;99.90;;;;;;6133442;23;20407;-83
2021/06/25 07:05:59;;;;;;;4.00;3.70;;;18.50;99.90;;;;;;6133320;23;20909;-83
2021/06/25 07:08:26;;;;;;;3.57;3.10;;;18.60;99.90;;;;;;6133970;23;20431;-83
2021/06/25 07:10:53;;;;;;;3.43;3.13;;;18.70;99.90;;;;;;6135811;23;20408;-82
2021/06/25 07:13:21;;;;;;;3.40;3.10;;;18.80;99.90;;;;;;6142606;23;20452;-82
2021/06/25 07:15:48;;;;;;;3.73;3.40;;;18.80;99.90;;;;;;6134443;23;20406;-83
2021/06/25 07:18:15;;;;;;;3.87;3.00;;;18.90;99.90;;;;;;6135691;23;20488;-82
2021/06/25 07:20:42;;;;;;;3.40;3.10;;;19.00;99.90;;;;;;6136352;23;20414;-82
2021/06/25 07:23:09;;;;;;;4.90;3.80;;;19.00;99.90;;;;;;6129435;23;20429;-83
2021/06/25 07:25:36;;;;;;;4.53;3.33;;;19.00;99.90;;;;;;6127740;23;20408;-83
2021/06/25 07:28:03;;;;;;;4.17;3.87;;;19.00;99.90;;;;;;6128646;23;20408;-83
2021/06/25 07:30:31;;;;;;;4.20;3.90;;;19.00;99.90;;;;;;6127813;23;20942;-83
2021/06/25 07:32:58;;;;;;;4.83;4.43;;;18.90;99.90;;;;;;6127288;23;20440;-84
2021/06/25 07:35:24;;;;;;;5.07;4.67;;;18.90;99.90;;;;;;6132386;23;20408;-83
2021/06/25 07:37:51;;;;;;;6.33;5.60;;;18.80;99.90;;;;;;6136120;23;20443;-83
2021/06/25 07:40:19;;;;;;;7.77;5.50;;;18.90;99.90;;;;;;6130993;23;20427;-83
2021/06/25 07:42:46;;;;;;;6.97;5.10;;;18.80;99.90;;;;;;6127529;23;21018;-83
2021/06/25 07:45:13;;;;;;;5.57;5.07;;;18.80;99.90;;;;;;6127419;23;20941;-84
2021/06/25 07:47:43;;;;;;;6.73;6.13;;;18.80;99.90;;;;;;6128590;23;20427;-84
2021/06/25 07:50:12;;;;;;;7.20;6.70;;;18.90;99.90;;;;;;6138493;23;20389;-83
2021/06/25 07:52:39;;;;;;;7.00;6.50;;;18.90;99.90;;;;;;6143792;23;20452;-84
2021/06/25 07:55:08;;;;;;;7.10;6.40;;;19.10;99.90;;;;;;6143921;23;20411;-83
2021/06/25 07:57:34;;;;;;;7.00;6.40;;;19.10;99.90;;;;;;6130967;23;20715;-84
2021/06/25 08:00:01;;;;;;;6.63;6.13;;;19.30;99.90;;;;;;6128849;23;20406;-84
2021/06/25 08:02:28;;;;;;;7.47;6.87;;;19.40;99.90;;;;;;6129440;23;20435;-84
2021/06/25 08:04:56;;;;;;;7.50;6.80;;;19.50;99.90;;;;;;6130730;23;20417;-84
2021/06/25 08:07:22;;;;;;;9.80;4.80;;;19.60;99.90;;;;;;6135320;23;20416;-84
2021/06/25 08:09:51;;;;;;;5.63;5.00;;;19.70;99.90;;;;;;6142415;23;20398;-84
2021/06/25 08:12:18;;;;;;;6.77;6.10;;;19.60;99.90;;;;;;6153703;23;20473;-84
2021/06/25 08:14:44;;;;;;;6.80;6.10;;;19.60;99.90;;;;;;6153689;23;20465;-82
2021/06/25 08:17:11;;;;;;;7.30;6.60;;;19.70;99.90;;;;;;6149388;23;20506;-84
2021/06/25 08:19:38;;;;;;;7.00;5.70;;;19.80;99.90;;;;;;6146055;23;20398;-84
2021/06/25 08:22:06;;;;;;;5.27;4.87;;;19.90;99.90;;;;;;6153961;23;20422;-84
2021/06/25 08:24:34;;;;;;;5.77;5.27;;;20.00;99.90;;;;;;6151815;23;20412;-84
2021/06/25 08:27:03;;;;;;;6.60;6.00;;;20.10;99.90;;;;;;6134443;23;20405;-84
2021/06/25 08:29:30;;;;;;;6.33;5.83;;;20.10;99.90;;;;;;6131414;23;20493;-85
2021/06/25 08:31:57;;;;;;;6.47;5.87;;;20.10;99.90;;;;;;6132800;23;20452;-84
2021/06/25 08:34:24;;;;;;;5.90;5.40;;;20.10;99.90;;;;;;6131930;23;20948;-84
2021/06/25 08:36:52;;;;;;;6.73;6.13;;;20.10;99.90;;;;;;6151218;23;20419;-83
2021/06/25 08:39:20;;;;;;;5.67;5.27;;;19.90;99.90;;;;;;6145378;23;20417;-84
2021/06/25 08:41:47;;;;;;;6.43;5.77;;;19.60;99.90;;;;;;6133907;23;20472;-83
2021/06/25 08:44:13;;;;;;;6.37;5.87;;;19.30;99.90;;;;;;6130586;23;20403;-84
2021/06/25 08:46:45;;;;;;;5.43;4.57;;;19.20;99.90;;;;;;6130335;23;20417;-83
2021/06/25 08:49:14;;;;;;;5.07;4.50;;;19.20;99.90;;;;;;6130885;23;20400;-84
2021/06/25 08:51:42;;;;;;;4.23;3.93;;;19.20;99.90;;;;;;6136512;23;20404;-84
2021/06/25 08:54:10;;;;;;;3.90;3.60;;;19.30;99.90;;;;;;6146754;23;20581;-84
2021/06/25 08:56:38;;;;;;;3.70;3.40;;;19.40;99.90;;;;;;6134162;23;20442;-83
2021/06/25 08:59:05;;;;;;;4.20;3.80;;;19.70;99.90;;;;;;6129944;23;20404;-83
2021/06/25 09:01:35;;;;;;;3.50;3.30;;;20.10;99.90;;;;;;6128705;23;20441;-84
2021/06/25 09:04:02;;;;;;;3.57;3.30;;;20.30;99.90;;;;;;6128569;23;20731;-84
2021/06/25 09:06:29;;;;;;;3.60;3.30;;;20.30;99.90;;;;;;6128547;23;20419;-84
2021/06/25 09:09:11;;;;;;;3.73;3.43;;;20.20;99.90;;;;;;6128243;23;20472;-84
2021/06/25 09:11:41;;;;;;;4.20;3.37;;;20.00;99.90;;;;;;6128075;23;20424;-84
2021/06/25 09:14:08;;;;;;;4.80;3.80;;;19.80;99.90;;;;;;6133649;23;20443;-84
2021/06/25 09:16:36;;;;;;;4.90;3.40;;;19.70;99.90;;;;;;6132762;23;20418;-84
2021/06/25 09:19:05;;;;;;;3.47;3.17;;;19.60;99.90;;;;;;6128250;23;20917;-84
2021/06/25 09:21:34;;;;;;;3.80;3.37;;;19.40;99.90;;;;;;6140516;23;20424;-83
2021/06/25 09:24:21;;;;;;;3.73;3.33;;;19.30;99.90;;;;;;6141330;23;21134;-83
2021/06/25 09:26:57;;;;;;;5.33;3.40;;;19.30;99.90;;;;;;6127911;23;20414;-84
2021/06/25 09:29:27;;;;;;;4.20;3.90;;;19.20;99.90;;;;;;6127833;23;20393;-85
2021/06/25 09:31:58;;;;;;;3.83;3.53;;;19.20;99.90;;;;;;6128664;23;20426;-84
2021/06/25 09:34:36;;;;;;;4.30;3.90;;;19.10;99.90;;;;;;6131147;23;20440;-85
2021/06/25 09:37:04;;;;;;;4.20;3.83;;;19.10;99.90;;;;;;6128503;23;20410;-84
2021/06/25 09:39:31;;;;;;;5.27;4.87;;;19.10;99.90;;;;;;6138176;23;20399;-83
2021/06/25 09:41:59;;;;;;;4.10;3.80;;;19.00;99.90;;;;;;6140349;23;20428;-84
2021/06/25 09:44:26;;;;;;;4.50;4.10;;;18.90;99.90;;;;;;6147109;23;20465;-82
2021/06/25 09:47:03;;;;;;;6.17;5.57;;;18.80;99.90;;;;;;6131975;23;20415;-83
2021/06/25 09:49:35;;;;;;;7.57;5.80;;;18.90;99.90;;;;;;6128274;23;20397;-83
2021/06/25 09:52:03;;;;;;;7.17;6.50;;;18.80;99.90;;;;;;6126905;23;20447;-84
2021/06/25 09:54:37;;;;;;;7.23;6.63;;;18.70;99.90;;;;;;6127524;23;20447;-84
2021/06/25 09:57:08;;;;;;;7.57;6.97;;;18.60;99.90;;;;;;6127322;23;20398;-84
2021/06/25 10:02:53;;;;;;;10.27;9.20;;;18.60;99.90;;;;;;6125374;23;20436;-84
2021/06/25 10:05:28;;;;;;;8.20;7.50;;;18.60;99.90;;;;;;6131923;23;20426;-84
2021/06/25 10:07:54;;;;;;;8.83;8.10;;;18.60;99.90;;;;;;6130694;23;20899;-84
2021/06/25 10:10:21;;;;;;;8.70;8.00;;;18.60;99.90;;;;;;6131592;23;20487;-84
2021/06/25 10:12:50;;;;;;;10.90;9.90;;;18.50;99.90;;;;;;6127122;23;20412;-84
2021/06/25 10:15:16;;;;;;;12.43;11.33;;;18.50;99.90;;;;;;6127826;23;20441;-84
2021/06/25 10:17:43;;;;;;;11.40;10.30;;;18.50;99.90;;;;;;6127612;23;20410;-84
2021/06/25 10:20:13;;;;;;;14.73;13.40;;;18.50;99.90;;;;;;6121623;23;20452;-88
2021/06/25 10:22:43;;;;;;;12.67;11.57;;;18.50;99.90;;;;;;6128980;23;20411;-88
2021/06/25 10:25:12;;;;;;;11.40;10.27;;;18.40;99.90;;;;;;6129815;23;20390;-86
2021/06/25 10:27:40;;;;;;;17.57;14.10;;;18.50;99.90;;;;;;6136971;23;20414;-87
2021/06/25 10:30:09;;;;;;;13.27;11.97;;;18.60;99.90;;;;;;6145850;23;20508;-87
2021/06/25 10:32:38;;;;;;;14.50;13.10;;;18.60;99.90;;;;;;6144776;23;20411;-87
2021/06/25 10:35:10;;;;;;;15.83;13.50;;;18.70;99.90;;;;;;6131565;23;20464;-88
2021/06/25 10:37:40;;;;;;;13.77;12.57;;;18.80;99.90;;;;;;6129766;23;20468;-88
2021/06/25 10:40:20;;;;;;;13.87;12.47;;;18.80;99.90;;;;;;6130305;23;20434;-87
2021/06/25 10:42:47;;;;;;;14.27;12.87;;;19.00;99.90;;;;;;6129294;23;20863;-87
2021/06/25 10:45:15;;;;;;;15.53;14.03;;;19.00;99.90;;;;;;6129538;23;20914;-87
2021/06/25 10:47:52;;;;;;;14.13;12.83;;;19.10;99.90;;;;;;6130133;23;20410;-88
2021/06/25 10:50:23;;;;;;;13.50;12.20;;;19.20;99.90;;;;;;6133680;23;20826;-87
2021/06/25 10:53:20;;;;;;;14.90;13.50;;;19.20;99.90;;;;;;6152221;23;20402;-87
2021/06/25 10:56:05;;;;;;;13.50;12.30;;;19.30;99.90;;;;;;6143387;23;20402;-87
2021/06/25 10:58:33;;;;;;;14.50;13.00;;;19.20;99.90;;;;;;6144006;23;20396;-87
2021/06/25 11:01:02;;;;;;;14.50;13.10;;;19.10;99.90;;;;;;6146436;23;20505;-87
2021/06/25 11:03:42;;;;;;;15.10;13.50;;;19.20;99.90;;;;;;6128696;23;20411;-88
2021/06/25 11:06:10;;;;;;;15.30;13.83;;;19.20;99.90;;;;;;6128626;23;20397;-88
2021/06/25 11:09:00;;;;;;;13.67;12.53;;;19.40;99.90;;;;;;6128942;23;20563;-87
2021/06/25 11:11:27;;;;;;;14.27;12.80;;;19.70;99.90;;;;;;6128222;23;20434;-87
2021/06/25 11:13:54;;;;;;;14.07;12.77;;;20.00;99.90;;;;;;6133016;23;20446;-88
2021/06/25 11:16:22;;;;;;;15.60;14.10;;;20.00;99.90;;;;;;6137892;23;20409;-88
2021/06/25 11:18:50;;;;;;;15.63;14.03;;;20.20;99.90;;;;;;6138321;23;20406;-87
2021/06/25 11:21:16;;;;;;;15.70;14.10;;;20.40;99.90;;;;;;6139802;23;21017;-88
2021/06/25 11:23:45;;;;;;;16.60;14.90;;;20.50;99.90;;;;;;6137883;23;20415;-88
2021/06/25 11:26:26;;;;;;;16.33;14.83;;;20.60;99.90;;;;;;6136520;23;20872;-88
2021/06/25 11:28:55;;;;;;;17.20;15.50;;;20.60;99.90;;;;;;6136843;23;20412;-88
2021/06/25 11:31:25;;;;;;;17.77;16.07;;;20.60;99.90;;;;;;6135908;23;20510;-88
2021/06/25 11:33:56;;;;;;;18.30;16.60;;;20.70;99.90;;;;;;6137053;23;20505;-86
2021/06/25 11:36:51;;;;;;;18.90;17.10;;;20.80;99.90;;;;;;6137281;23;20397;-87
2021/06/25 11:39:32;;;;;;;17.80;16.10;;;20.90;99.90;;;;;;6136926;23;20396;-87
2021/06/25 11:42:02;;;;;;;18.53;16.63;;;21.10;99.90;;;;;;6137878;23;20396;-88
2021/06/25 11:44:31;;;;;;;18.60;16.70;;;21.30;99.90;;;;;;6138295;23;20466;-88
2021/06/25 11:47:09;;;;;;;16.13;14.53;;;21.40;99.90;;;;;;6137788;23;20458;-88
2021/06/25 11:49:39;;;;;;;16.37;14.83;;;21.60;99.90;;;;;;6138112;23;20750;-88
2021/06/25 11:52:08;;;;;;;18.17;16.30;;;21.80;99.90;;;;;;6129927;23;20426;-88
2021/06/25 11:54:37;;;;;;;18.00;16.27;;;21.80;99.90;;;;;;6127701;23;20442;-87
2021/06/25 11:57:04;;;;;;;16.10;14.60;;;21.70;99.90;;;;;;6127713;23;20403;-87
2021/06/25 11:59:31;;;;;;;17.83;16.33;;;21.70;99.90;;;;;;6150490;23;20408;-87
2021/06/25 12:01:59;;;;;;;17.13;15.33;;;21.60;99.90;;;;;;6142018;23;20416;-88
2021/06/25 12:04:39;;;;;;;17.80;15.83;;;21.50;99.90;;;;;;6133182;23;20400;-88
2021/06/25 12:07:08;;;;;;;17.03;15.43;;;21.60;99.90;;;;;;6139801;23;20399;-87
2021/06/25 12:09:53;;;;;;;16.47;14.87;;;21.70;99.90;;;;;;6131077;23;20431;-87
2021/06/25 12:12:28;;;;;;;17.30;15.70;;;21.90;99.90;;;;;;6135257;23;20415;-87
2021/06/25 12:14:58;;;;;;;16.27;14.80;;;22.30;99.90;;;;;;6147407;23;20456;-87
2021/06/25 12:17:26;;;;;;;15.13;13.73;;;22.40;99.90;;;;;;6142412;23;20406;-88
2021/06/25 12:20:00;;;;;;;14.40;13.00;;;22.70;99.90;;;;;;6128368;23;20960;-88
2021/06/25 12:22:27;;;;;;;13.10;12.00;;;23.10;99.90;;;;;;6127816;23;20875;-88
2021/06/25 12:24:56;;;;;;;13.20;12.07;;;23.40;99.90;;;;;;6127906;23;20497;-88
2021/06/25 12:27:42;;;;;;;13.27;11.73;;;23.90;99.90;;;;;;6128773;23;20406;-88
2021/06/25 12:30:15;;;;;;;11.90;10.77;;;24.40;99.90;;;;;;6128982;23;20949;-88
2021/06/25 12:32:43;;;;;;;11.60;10.70;;;24.70;99.90;;;;;;6127930;23;20410;-88
2021/06/25 12:35:12;;;;;;;11.40;10.40;;;24.30;99.90;;;;;;6129298;23;20441;-88
2021/06/25 12:37:50;;;;;;;10.43;9.13;;;23.80;99.90;;;;;;6142253;23;20394;-86
2021/06/25 12:40:49;;;;;;;8.70;8.00;;;23.50;99.90;;;;;;6128358;23;20430;-86
2021/06/25 12:43:22;;;;;;;8.00;7.40;;;23.30;99.90;;;;;;6125493;23;20409;-89
2021/06/25 12:45:52;;;;;;;8.80;8.17;;;23.40;99.90;;;;;;6129090;23;20857;-86
2021/06/25 12:48:22;;;;;;;20.40;13.67;;;23.50;99.90;;;;;;6130133;23;20421;-85
2021/06/25 12:50:59;;;;;;;14.03;12.50;;;23.60;99.90;;;;;;6130214;23;20434;-85
2021/06/25 12:53:32;;;;;;;9.10;8.30;;;23.60;99.90;;;;;;6130274;23;20962;-86
2021/06/25 12:56:00;;;;;;;7.00;6.40;;;23.90;99.90;;;;;;6128385;23;20445;-86
2021/06/25 12:58:32;;;;;;;5.37;4.87;;;24.60;99.90;;;;;;6129557;23;20419;-86
2021/06/25 13:01:03;;;;;;;5.83;5.30;;;25.90;97.40;;;;;;6131546;23;20463;-86
2021/06/25 13:03:31;;;;;;;6.30;5.80;;;26.40;95.10;;;;;;6137636;23;20415;-85
2021/06/25 13:06:25;;;;;;;5.90;5.50;;;26.00;95.10;;;;;;6137792;23;20804;-86